Time;durP1;ratioP1;P1;durP2;ratioP2;P2;SDS_P1;SDS_P2;PMS_P1;PMS_P2;Temp;Humidity;BMP_temperature;BMP_pressure;BME280_temperature;BME280_humidity;BME280_pressure;Samples;Min_cycle;Max_cycle;Signal;HPM_P1;HPM_P2
2023/04/20 00:00:29;;;;;;;6.18;4.78;;;;;;;4.19;69.27;102168.03;1047876;28;20291;-79
2023/04/20 00:01:01;;;;;;;6.05;3.03;;;;;;;4.32;69.61;102173.81;1048146;28;20660;-79
2023/04/20 00:01:32;;;;;;;8.15;4.22;;;;;;;4.35;68.61;102171.72;1045201;28;20319;-79
2023/04/20 00:02:05;;;;;;;6.82;4.35;;;;;;;4.37;67.86;102155.75;1047941;28;20302;-79
2023/04/20 00:02:38;;;;;;;10.15;4.57;;;;;;;4.37;67.88;102166.31;1047968;28;20368;-80
2023/04/20 00:03:11;;;;;;;7.22;4.68;;;;;;;4.10;68.86;102161.78;1044742;28;20299;-79
2023/04/20 00:03:43;;;;;;;12.00;4.80;;;;;;;4.14;68.63;102165.00;1046769;28;20808;-79
2023/04/20 00:04:15;;;;;;;11.73;5.78;;;;;;;4.16;69.41;102160.41;1045849;28;20358;-79
2023/04/20 00:04:46;;;;;;;7.15;4.78;;;;;;;4.41;68.67;102162.44;1045307;28;20348;-79
2023/04/20 00:05:18;;;;;;;8.20;3.30;;;;;;;4.49;65.99;102154.63;1047538;28;20299;-79
2023/04/20 00:05:49;;;;;;;7.72;2.85;;;;;;;4.62;64.61;102155.13;1047503;28;20395;-80
2023/04/20 00:06:21;;;;;;;5.00;3.10;;;;;;;4.56;65.64;102150.44;1047870;28;20302;-79
2023/04/20 00:06:55;;;;;;;6.22;3.45;;;;;;;4.46;65.87;102148.81;1047303;28;20305;-79
2023/04/20 00:07:28;;;;;;;7.13;4.32;;;;;;;4.54;66.30;102155.03;1044026;28;20307;-79
2023/04/20 00:08:00;;;;;;;3.85;3.45;;;;;;;4.60;65.51;102145.69;1046112;28;20368;-79
2023/04/20 00:08:31;;;;;;;10.70;3.65;;;;;;;4.54;66.71;102149.75;1046035;28;20600;-79
2023/04/20 00:09:03;;;;;;;5.57;3.67;;;;;;;4.62;65.63;102141.94;1047078;28;20305;-79
2023/04/20 00:09:35;;;;;;;8.55;3.97;;;;;;;4.59;66.80;102150.13;1040905;28;20414;-79
2023/04/20 00:10:07;;;;;;;7.28;3.38;;;;;;;4.59;65.75;102147.50;1043699;28;20291;-78
2023/04/20 00:10:39;;;;;;;5.15;3.13;;;;;;;4.50;66.41;102143.09;1043146;28;20295;-79
2023/04/20 00:11:11;;;;;;;4.30;3.10;;;;;;;4.54;67.47;102152.38;1041284;28;20710;-79
2023/04/20 00:11:42;;;;;;;3.67;3.35;;;;;;;4.54;67.93;102149.75;1047816;28;20302;-78
2023/04/20 00:12:14;;;;;;;3.30;2.45;;;;;;;4.61;65.21;102136.78;1037517;28;20359;-79
2023/04/20 00:12:46;;;;;;;4.00;3.60;;;;;;;4.45;67.00;102142.69;1043965;28;20785;-80
2023/04/20 00:13:17;;;;;;;6.05;2.97;;;;;;;4.47;66.50;102138.13;1043653;28;20325;-79
2023/04/20 00:13:49;;;;;;;3.55;2.65;;;;;;;4.38;67.51;102136.31;1042336;28;20370;-80
2023/04/20 00:14:20;;;;;;;5.82;2.50;;;;;;;4.34;68.39;102142.84;1044130;28;20378;-79
2023/04/20 00:14:52;;;;;;;3.90;2.50;;;;;;;4.40;68.83;102152.84;1047853;28;20632;-79
2023/04/20 00:15:24;;;;;;;5.43;3.85;;;;;;;4.45;68.79;102147.97;1041165;28;20330;-75
2023/04/20 00:15:55;;;;;;;4.75;3.10;;;;;;;4.42;68.13;102137.72;1039994;28;20311;-76
2023/04/20 00:16:27;;;;;;;3.50;2.85;;;;;;;4.40;69.55;102144.13;1043417;28;21104;-76
2023/04/20 00:16:59;;;;;;;6.05;3.83;;;;;;;4.37;70.19;102150.47;1043440;28;20303;-75
2023/04/20 00:17:30;;;;;;;5.07;4.00;;;;;;;4.25;70.41;102152.47;1043847;28;20294;-76
2023/04/20 00:18:02;;;;;;;8.23;4.88;;;;;;;4.36;69.64;102148.81;1047294;28;20363;-77
2023/04/20 00:18:34;;;;;;;3.95;3.53;;;;;;;4.17;69.92;102139.16;1047623;28;20397;-76
2023/04/20 00:19:06;;;;;;;7.95;4.13;;;;;;;4.07;69.90;102137.50;1047415;28;20307;-75
2023/04/20 00:19:38;;;;;;;3.92;3.53;;;;;;;4.11;68.82;102139.75;1047311;28;20765;-75
2023/04/20 00:20:11;;;;;;;5.55;3.63;;;;;;;4.19;68.43;102131.13;1047842;28;20299;-76
2023/04/20 00:20:43;;;;;;;4.40;3.05;;;;;;;4.36;69.75;102138.28;1047076;28;20436;-75
2023/04/20 00:21:15;;;;;;;8.75;3.70;;;;;;;4.36;68.76;102140.91;1042960;28;20298;-76
2023/04/20 00:21:47;;;;;;;5.47;3.55;;;;;;;4.34;68.45;102134.94;1043162;28;20307;-76
2023/04/20 00:22:19;;;;;;;5.68;3.28;;;;;;;4.23;69.82;102137.75;1043481;28;20296;-76
2023/04/20 00:22:50;;;;;;;4.20;3.22;;;;;;;4.39;69.75;102135.38;1043426;28;20295;-75
2023/04/20 00:23:22;;;;;;;8.82;4.45;;;;;;;4.60;67.15;102133.31;1039668;28;20306;-76
2023/04/20 00:23:54;;;;;;;7.60;4.25;;;;;;;4.51;67.97;102128.94;1043529;28;20342;-76
2023/04/20 00:24:25;;;;;;;3.40;3.03;;;;;;;4.71;66.40;102127.03;1043547;28;20382;-76
2023/04/20 00:24:57;;;;;;;5.53;2.80;;;;;;;4.74;64.95;102120.63;1043179;28;20306;-76
2023/04/20 00:25:30;;;;;;;6.47;2.83;;;;;;;4.83;63.84;102117.13;1043713;28;20295;-76
2023/04/20 00:26:02;;;;;;;3.20;2.90;;;;;;;4.93;63.32;102116.09;1043405;28;20441;-77
2023/04/20 00:26:33;;;;;;;4.80;3.08;;;;;;;4.75;65.66;102117.03;1043312;28;20307;-76
2023/04/20 00:27:05;;;;;;;4.55;3.72;;;;;;;4.75;67.02;102122.31;1039038;28;20324;-75
2023/04/20 00:27:38;;;;;;;4.43;3.67;;;;;;;4.79;68.00;102119.22;1039916;28;20292;-75
2023/04/20 00:28:09;;;;;;;4.75;2.75;;;;;;;4.74;68.09;102126.75;1043185;28;20857;-75
2023/04/20 00:28:42;;;;;;;14.13;3.85;;;;;;;4.78;67.88;102122.00;1039721;28;20335;-76
2023/04/20 00:29:13;;;;;;;4.10;3.33;;;;;;;4.72;67.58;102122.59;1039328;28;20793;-75
2023/04/20 00:29:45;;;;;;;3.30;2.97;;;;;;;4.75;67.69;102119.66;1036948;28;20300;-76
2023/04/20 00:30:17;;;;;;;3.25;2.95;;;;;;;4.72;67.75;102125.25;1036361;28;20304;-75
2023/04/20 00:30:48;;;;;;;5.95;3.83;;;;;;;4.86;68.52;102130.00;1043781;28;20666;-75
2023/04/20 00:31:20;;;;;;;4.50;3.17;;;;;;;4.83;67.51;102119.75;1043504;28;20299;-75
2023/04/20 00:31:52;;;;;;;4.80;3.15;;;;;;;4.79;68.88;102126.31;1042733;28;20318;-75
2023/04/20 00:32:23;;;;;;;4.20;3.33;;;;;;;4.82;68.27;102118.91;1043204;28;20291;-75
2023/04/20 00:32:55;;;;;;;4.32;3.90;;;;;;;4.86;68.51;102122.94;1043693;28;20291;-76
2023/04/20 00:33:27;;;;;;;4.90;3.85;;;;;;;4.92;68.08;102118.84;1043118;28;20824;-76
2023/04/20 00:33:58;;;;;;;6.63;4.43;;;;;;;4.93;67.56;102115.25;1039166;28;20773;-76
2023/04/20 00:34:30;;;;;;;16.25;4.45;;;;;;;4.99;67.49;102113.84;1037395;28;20367;-76
2023/04/20 00:35:05;;;;;;;57.40;10.50;;;;;;;5.04;66.78;102111.59;1038776;28;20306;-76
2023/04/20 00:35:36;;;;;;;32.47;6.22;;;;;;;5.07;65.97;102100.72;1039926;28;20287;-76
2023/04/20 00:36:08;;;;;;;10.05;3.42;;;;;;;5.23;63.58;102091.16;1040037;28;20547;-75
2023/04/20 00:36:39;;;;;;;11.05;3.60;;;;;;;5.24;63.26;102087.53;1036738;28;20301;-76
2023/04/20 00:37:11;;;;;;;8.27;3.45;;;;;;;5.32;61.84;102083.31;1039177;28;20306;-76
2023/04/20 00:37:42;;;;;;;6.05;2.92;;;;;;;5.23;63.09;102088.50;1039703;28;20690;-76
2023/04/20 00:38:14;;;;;;;24.40;4.72;;;;;;;5.33;62.98;102080.50;1040029;28;20386;-75
2023/04/20 00:38:46;;;;;;;3.67;3.13;;;;;;;5.42;62.01;102084.03;1043165;28;20689;-76
2023/04/20 00:39:17;;;;;;;4.78;2.97;;;;;;;5.35;61.79;102083.81;1041874;28;20299;-79
2023/04/20 00:39:50;;;;;;;3.53;3.08;;;;;;;5.31;63.26;102081.63;1039926;28;20296;-79
2023/04/20 00:40:21;;;;;;;8.75;3.53;;;;;;;5.33;64.49;102085.78;1038972;28;20367;-79
2023/04/20 00:40:57;;;;;;;11.10;3.17;;;;;;;5.38;65.93;102095.91;1035042;28;20304;-79
2023/04/20 00:41:28;;;;;;;5.78;2.75;;;;;;;5.23;66.57;102091.16;1033791;28;20293;-76
2023/04/20 00:42:07;;;;;;;7.72;3.42;;;;;;;5.26;67.44;102100.59;1029234;28;20307;-79
2023/04/20 00:42:41;;;;;;;14.27;4.30;;;;;;;5.27;67.37;102097.78;1037298;28;20297;-79
2023/04/20 00:43:13;;;;;;;4.85;3.40;;;;;;;5.27;67.24;102103.06;1036487;28;20304;-79
2023/04/20 00:43:53;;;;;;;4.93;3.58;;;;;;;5.30;65.60;102085.25;1030979;28;20301;-79
2023/04/20 00:44:24;;;;;;;2.97;2.50;;;;;;;5.35;64.74;102093.56;1028833;28;20313;-77
2023/04/20 00:44:57;;;;;;;2.92;2.53;;;;;;;5.45;63.13;102083.72;1035121;28;20544;-79
2023/04/20 00:45:29;;;;;;;3.63;2.97;;;;;;;5.47;62.51;102076.47;1038702;28;20307;-78
2023/04/20 00:46:02;;;;;;;5.57;2.92;;;;;;;5.45;62.24;102070.53;1043056;28;20709;-79
2023/04/20 00:46:34;;;;;;;4.20;3.13;;;;;;;5.51;61.41;102070.75;1041948;28;20321;-79
2023/04/20 00:47:08;;;;;;;5.57;3.33;;;;;;;5.54;62.06;102075.75;1038261;28;20292;-77
2023/04/20 00:47:39;;;;;;;3.97;2.72;;;;;;;5.56;62.20;102081.69;1030969;28;20321;-76
2023/04/20 00:48:11;;;;;;;4.22;3.33;;;;;;;5.51;62.39;102069.94;1034486;28;20311;-77
2023/04/20 00:48:43;;;;;;;4.85;3.17;;;;;;;5.33;63.57;102080.50;1036745;28;20649;-76
2023/04/20 00:49:14;;;;;;;3.40;3.10;;;;;;;5.36;63.42;102076.72;1039668;28;20350;-77
2023/04/20 00:49:47;;;;;;;4.40;3.30;;;;;;;5.24;64.56;102071.69;1038729;28;20300;-76
2023/04/20 00:50:18;;;;;;;3.92;2.97;;;;;;;5.23;66.06;102080.59;1038954;28;20363;-76
2023/04/20 00:50:51;;;;;;;5.43;3.33;;;;;;;5.35;65.12;102083.00;1039849;28;20410;-76
2023/04/20 00:51:22;;;;;;;4.43;2.92;;;;;;;5.35;64.06;102072.44;1031268;28;20679;-76
2023/04/20 00:51:57;;;;;;;7.78;4.05;;;;;;;5.36;63.33;102071.44;1030970;28;20304;-76
2023/04/20 00:52:29;;;;;;;7.10;2.92;;;;;;;5.32;63.77;102072.72;1032999;28;20301;-76
2023/04/20 00:53:02;;;;;;;5.47;2.90;;;;;;;5.33;63.80;102079.69;1036067;28;20380;-76
2023/04/20 00:53:33;;;;;;;5.97;3.80;;;;;;;5.41;63.14;102074.44;1035101;28;20304;-76
2023/04/20 00:54:05;;;;;;;5.75;3.72;;;;;;;5.40;63.22;102070.16;1033963;28;20790;-76
2023/04/20 00:54:36;;;;;;;6.55;3.17;;;;;;;5.46;63.57;102072.19;1035771;28;20297;-76
2023/04/20 00:55:08;;;;;;;4.82;3.33;;;;;;;5.43;63.71;102069.84;1039253;28;20300;-76
2023/04/20 00:55:42;;;;;;;4.88;2.40;;;;;;;5.44;63.51;102063.56;1039630;28;20369;-76
2023/04/20 00:56:16;;;;;;;5.53;2.42;;;;;;;5.47;63.42;102073.84;1034899;28;20308;-77
2023/04/20 00:56:48;;;;;;;4.05;3.30;;;;;;;5.43;63.44;102069.84;1032361;28;20293;-77
2023/04/20 00:57:22;;;;;;;4.03;2.90;;;;;;;5.47;63.02;102068.56;1031154;28;20802;-76
2023/04/20 00:57:54;;;;;;;4.88;3.08;;;;;;;5.47;62.51;102064.09;1036662;28;20311;-76
2023/04/20 00:58:26;;;;;;;2.90;2.60;;;;;;;5.44;63.61;102066.22;1039593;28;20304;-76
2023/04/20 00:58:58;;;;;;;7.40;3.55;;;;;;;5.35;65.30;102077.72;1039325;28;20371;-76
2023/04/20 00:59:29;;;;;;;7.47;3.33;;;;;;;5.42;65.00;102068.19;1035661;28;20305;-76
2023/04/20 01:00:01;;;;;;;4.90;3.45;;;;;;;5.40;64.95;102076.28;1032235;28;20696;-75
2023/04/20 01:00:33;;;;;;;7.07;4.10;;;;;;;5.37;63.05;102070.47;1031652;28;20297;-76
2023/04/20 01:01:04;;;;;;;4.18;3.05;;;;;;;5.37;63.73;102062.53;1035870;28;20288;-77
2023/04/20 01:01:36;;;;;;;7.18;3.13;;;;;;;5.45;63.20;102060.78;1039762;28;20473;-76
2023/04/20 01:02:08;;;;;;;3.90;2.83;;;;;;;5.43;62.76;102062.75;1043460;28;20303;-76
2023/04/20 01:02:40;;;;;;;8.30;3.50;;;;;;;5.37;63.51;102057.25;1041125;28;20713;-76
2023/04/20 01:03:12;;;;;;;5.15;3.25;;;;;;;5.35;64.57;102056.56;1042813;28;20299;-76
2023/04/20 01:03:44;;;;;;;7.78;3.78;;;;;;;5.40;65.58;102064.88;1039264;28;20965;-76
2023/04/20 01:04:16;;;;;;;10.18;4.68;;;;;;;5.32;66.63;102063.00;1040046;28;20905;-76
2023/04/20 01:04:48;;;;;;;4.95;3.28;;;;;;;5.22;67.80;102073.66;1038972;28;20921;-76
2023/04/20 01:05:20;;;;;;;7.72;4.75;;;;;;;5.30;67.24;102069.41;1035722;28;20343;-77
2023/04/20 01:05:52;;;;;;;8.40;3.90;;;;;;;5.41;66.12;102056.78;1035221;28;20304;-77
2023/04/20 01:06:25;;;;;;;4.25;3.83;;;;;;;5.40;65.02;102059.59;1035936;28;20395;-76
2023/04/20 01:06:57;;;;;;;4.60;3.75;;;;;;;5.31;66.25;102055.22;1031741;28;20302;-77
2023/04/20 01:07:29;;;;;;;4.38;3.92;;;;;;;5.28;66.52;102057.19;1035169;28;20319;-77
2023/04/20 01:08:00;;;;;;;9.45;3.53;;;;;;;5.30;66.77;102053.56;1039415;28;20782;-76
2023/04/20 01:08:33;;;;;;;3.20;2.90;;;;;;;5.27;66.31;102044.97;1040544;28;20732;-76
2023/04/20 01:09:08;;;;;;;4.28;2.90;;;;;;;5.33;66.32;102053.25;1039837;28;20458;-76
2023/04/20 01:09:41;;;;;;;5.20;3.70;;;;;;;5.33;66.11;102050.63;1039903;28;20300;-77
2023/04/20 01:10:13;;;;;;;5.40;3.47;;;;;;;5.38;65.81;102045.69;1040054;28;20387;-76
2023/04/20 01:10:45;;;;;;;6.32;2.80;;;;;;;5.46;64.29;102040.47;1033618;28;20356;-76
2023/04/20 01:11:17;;;;;;;5.90;3.17;;;;;;;5.45;65.23;102052.03;1035514;28;20309;-76
2023/04/20 01:11:48;;;;;;;5.45;2.78;;;;;;;5.41;66.04;102046.22;1036060;28;20301;-80
2023/04/20 01:12:20;;;;;;;6.15;3.67;;;;;;;5.38;66.56;102040.41;1031447;28;20306;-79
2023/04/20 01:12:52;;;;;;;6.35;3.35;;;;;;;5.42;65.71;102042.59;1036343;28;20311;-80
2023/04/20 01:13:23;;;;;;;5.82;3.38;;;;;;;5.37;66.45;102046.69;1036290;28;20671;-79
2023/04/20 01:13:55;;;;;;;3.42;3.13;;;;;;;5.29;67.69;102050.09;1031156;28;20302;-80
2023/04/20 01:14:27;;;;;;;3.00;2.50;;;;;;;5.31;67.83;102053.41;1041093;28;20807;-79
2023/04/20 01:15:17;;;;;;;4.43;3.95;;;;;;;5.34;67.30;102049.63;1042777;28;20311;-79
2023/04/20 01:15:50;;;;;;;4.85;3.42;;;;;;;5.36;66.60;102045.03;1044277;28;20684;-79
2023/04/20 01:16:22;;;;;;;4.40;3.67;;;;;;;5.31;66.83;102044.66;1039642;28;20306;-79
2023/04/20 01:16:54;;;;;;;6.43;3.38;;;;;;;5.35;67.09;102049.47;1042678;28;20302;-77
2023/04/20 01:17:26;;;;;;;8.38;3.22;;;;;;;5.44;66.53;102045.09;1044699;28;20295;-75
2023/04/20 01:17:58;;;;;;;4.88;3.80;;;;;;;5.40;66.64;102047.22;1043932;28;20326;-76
2023/04/20 01:18:41;;;;;;;4.07;3.13;;;;;;;5.41;66.40;102040.09;1048103;28;20788;-76
2023/04/20 01:19:12;;;;;;;6.85;3.53;;;;;;;5.42;66.35;102039.13;1035345;28;20387;-75
2023/04/20 01:19:44;;;;;;;4.28;3.30;;;;;;;5.45;66.32;102033.53;1033662;28;20671;-76
2023/04/20 01:20:16;;;;;;;4.30;3.17;;;;;;;5.33;66.63;102029.47;1035964;28;20842;-76
2023/04/20 01:20:47;;;;;;;3.75;3.42;;;;;;;5.44;66.51;102039.78;1033757;28;20817;-75
2023/04/20 01:21:23;;;;;;;6.03;3.08;;;;;;;5.31;66.47;102039.38;1043063;28;20681;-74
2023/04/20 01:21:55;;;;;;;4.32;3.72;;;;;;;5.32;66.73;102035.75;1043913;28;20307;-74
2023/04/20 01:22:27;;;;;;;3.63;3.20;;;;;;;5.22;67.52;102038.47;1040167;28;20315;-75
2023/04/20 01:22:59;;;;;;;5.53;3.40;;;;;;;5.31;67.44;102034.09;1039885;28;20371;-75
2023/04/20 01:23:33;;;;;;;3.80;3.35;;;;;;;5.24;67.57;102034.69;1040757;28;20304;-75
2023/04/20 01:24:07;;;;;;;3.92;2.67;;;;;;;5.22;67.23;102031.38;1043931;28;20296;-74
2023/04/20 01:24:39;;;;;;;4.10;3.28;;;;;;;5.15;67.88;102030.31;1046724;28;20307;-74
2023/04/20 01:25:10;;;;;;;5.88;3.42;;;;;;;5.10;68.91;102032.56;1048212;28;20393;-74
2023/04/20 01:25:42;;;;;;;4.03;3.45;;;;;;;5.04;69.61;102035.00;1048185;28;20291;-75
2023/04/20 01:26:15;;;;;;;8.45;3.78;;;;;;;4.94;70.73;102030.63;1048364;28;20301;-75
2023/04/20 01:26:47;;;;;;;5.43;3.92;;;;;;;4.96;70.56;102035.75;1044236;28;20303;-74
2023/04/20 01:27:18;;;;;;;3.20;2.90;;;;;;;4.95;69.81;102028.81;1039730;28;20300;-75
2023/04/20 01:27:50;;;;;;;3.85;3.20;;;;;;;5.14;69.42;102036.56;1030935;28;20325;-75
2023/04/20 01:28:22;;;;;;;7.28;3.75;;;;;;;5.12;69.38;102030.63;1028895;28;20305;-75
2023/04/20 01:28:55;;;;;;;3.38;3.08;;;;;;;5.09;68.97;102025.63;1032070;28;20883;-75
2023/04/20 01:29:27;;;;;;;8.30;4.30;;;;;;;5.10;68.67;102022.00;1036525;28;20305;-74
2023/04/20 01:29:58;;;;;;;6.38;3.25;;;;;;;5.11;68.39;102025.50;1032632;28;20312;-79
2023/04/20 01:30:30;;;;;;;4.65;3.20;;;;;;;5.09;68.51;102023.00;1034107;28;20799;-80
2023/04/20 01:31:04;;;;;;;3.95;3.40;;;;;;;5.09;68.66;102020.34;1036715;28;20810;-80
2023/04/20 01:31:35;;;;;;;3.92;3.45;;;;;;;4.98;69.24;102023.25;1036286;28;21453;-80
2023/04/20 01:32:08;;;;;;;7.20;4.10;;;;;;;5.01;70.03;102024.75;1041053;28;20371;-80
2023/04/20 01:32:40;;;;;;;10.15;4.13;;;;;;;5.01;69.96;102022.09;1039308;28;20675;-80
2023/04/20 01:33:12;;;;;;;3.17;2.83;;;;;;;5.05;69.22;102021.66;1036028;28;20300;-80
2023/04/20 01:33:43;;;;;;;5.03;3.83;;;;;;;4.97;69.10;102011.00;1040147;28;20296;-80
2023/04/20 01:34:16;;;;;;;4.10;3.70;;;;;;;4.93;69.08;102015.78;1036054;28;20300;-80
2023/04/20 01:34:48;;;;;;;6.47;3.72;;;;;;;4.93;69.51;102025.47;1041731;28;20730;-79
2023/04/20 01:35:20;;;;;;;8.68;3.72;;;;;;;4.85;70.36;102020.13;1047927;28;20317;-80
2023/04/20 01:35:52;;;;;;;4.43;3.95;;;;;;;4.80;70.64;102014.47;1044581;28;20310;-80
2023/04/20 01:36:24;;;;;;;4.13;3.20;;;;;;;4.87;69.98;102012.88;1045354;28;20291;-80
2023/04/20 01:36:55;;;;;;;4.35;3.67;;;;;;;5.01;69.95;102020.28;1047897;28;20796;-79
2023/04/20 01:37:28;;;;;;;4.30;3.22;;;;;;;5.01;69.70;102015.00;1044017;28;20314;-79
2023/04/20 01:38:00;;;;;;;4.30;3.53;;;;;;;5.03;69.93;102015.69;1042431;28;20302;-80
2023/04/20 01:38:33;;;;;;;4.97;3.40;;;;;;;4.95;70.18;102012.97;1040546;28;20785;-80
2023/04/20 01:39:05;;;;;;;5.93;3.58;;;;;;;5.01;69.76;102007.09;1037386;28;20402;-79
2023/04/20 01:39:38;;;;;;;7.05;3.70;;;;;;;4.96;69.75;102009.34;1038095;28;20360;-80
2023/04/20 01:40:11;;;;;;;4.05;3.22;;;;;;;4.81;71.17;102000.28;1038100;28;20832;-80
2023/04/20 01:40:43;;;;;;;5.55;3.65;;;;;;;4.81;71.18;102011.66;1032955;28;20452;-80
2023/04/20 01:41:15;;;;;;;6.93;3.63;;;;;;;4.91;70.71;102012.41;1037412;28;20297;-79
2023/04/20 01:41:46;;;;;;;7.63;3.80;;;;;;;4.95;70.52;102005.88;1035079;28;20297;-79
2023/04/20 01:42:18;;;;;;;6.15;3.72;;;;;;;5.03;70.34;102009.56;1038879;28;20356;-79
2023/04/20 01:42:49;;;;;;;4.78;3.58;;;;;;;5.00;70.26;102009.88;1036102;28;20340;-79
2023/04/20 01:43:21;;;;;;;4.45;3.60;;;;;;;4.91;70.39;102011.59;1039668;28;20367;-80
2023/04/20 01:43:53;;;;;;;10.25;3.97;;;;;;;4.97;70.44;102011.00;1038931;28;20303;-80
2023/04/20 01:44:25;;;;;;;8.32;3.72;;;;;;;4.94;70.82;102006.03;1031838;28;20402;-80
2023/04/20 01:44:57;;;;;;;4.30;3.65;;;;;;;4.82;71.52;102007.22;1032386;28;20305;-79
2023/04/20 01:45:28;;;;;;;4.47;3.80;;;;;;;4.82;71.04;102008.06;1040025;28;20339;-80
2023/04/20 01:46:01;;;;;;;4.30;3.53;;;;;;;4.83;71.10;102003.59;1040427;28;20362;-80
2023/04/20 01:46:36;;;;;;;4.40;3.63;;;;;;;4.93;71.15;102009.63;1042858;28;20670;-79
2023/04/20 01:47:08;;;;;;;4.88;3.15;;;;;;;4.97;70.64;102005.75;1047086;28;20306;-78
2023/04/20 01:47:39;;;;;;;5.18;4.00;;;;;;;4.98;70.66;102002.13;1039755;28;20377;-79
2023/04/20 01:48:11;;;;;;;4.50;3.40;;;;;;;5.01;70.51;101998.34;1038217;28;20296;-76
2023/04/20 01:48:43;;;;;;;6.90;4.13;;;;;;;5.00;70.71;102000.16;1044215;28;20291;-76
2023/04/20 01:49:14;;;;;;;4.13;3.47;;;;;;;4.97;70.95;102006.56;1043645;28;20368;-76
2023/04/20 01:49:46;;;;;;;3.90;3.25;;;;;;;5.04;70.43;102001.50;1043625;28;20356;-76
2023/04/20 01:50:18;;;;;;;5.57;3.22;;;;;;;5.07;70.70;102000.38;1044182;28;20730;-76
2023/04/20 01:50:50;;;;;;;5.68;3.58;;;;;;;5.10;70.87;102003.53;1043699;28;20381;-76
2023/04/20 01:51:22;;;;;;;4.80;3.63;;;;;;;5.06;71.02;101999.53;1043866;28;20434;-76
2023/04/20 01:51:54;;;;;;;3.80;3.47;;;;;;;5.06;71.45;101998.72;1043760;28;20303;-76
2023/04/20 01:52:26;;;;;;;4.13;3.30;;;;;;;5.03;71.58;101999.84;1044519;28;20298;-76
2023/04/20 01:52:57;;;;;;;4.32;3.40;;;;;;;5.06;71.07;101994.25;1043513;28;20385;-76
2023/04/20 01:53:29;;;;;;;7.88;3.17;;;;;;;5.12;71.32;101993.66;1043590;28;20315;-76
2023/04/20 01:54:01;;;;;;;3.90;3.53;;;;;;;5.11;71.40;101997.25;1043575;28;20311;-76
2023/04/20 01:54:33;;;;;;;4.05;3.65;;;;;;;5.10;71.71;101990.31;1043350;28;20437;-76
2023/04/20 01:55:05;;;;;;;4.50;3.78;;;;;;;5.15;71.81;101992.50;1043965;28;20380;-76
2023/04/20 01:55:37;;;;;;;6.72;4.85;;;;;;;5.10;72.77;101995.59;1043756;28;20299;-76
2023/04/20 01:56:09;;;;;;;7.75;3.92;;;;;;;5.14;72.20;101993.50;1036325;28;20307;-79
2023/04/20 01:56:40;;;;;;;4.40;3.78;;;;;;;5.17;71.96;101996.66;1036275;28;20305;-79
2023/04/20 01:57:12;;;;;;;7.63;3.88;;;;;;;5.14;72.25;101994.31;1035737;28;20393;-79
2023/04/20 01:57:45;;;;;;;4.82;3.67;;;;;;;5.19;72.75;101993.84;1034824;28;20313;-80
2023/04/20 01:58:16;;;;;;;7.78;4.20;;;;;;;5.07;73.49;101995.91;1039562;28;20307;-80
2023/04/20 01:58:48;;;;;;;5.70;4.30;;;;;;;5.14;73.89;101999.59;1040141;28;20312;-80
2023/04/20 01:59:19;;;;;;;4.45;4.05;;;;;;;5.18;73.68;102003.59;1039453;28;20668;-80
2023/04/20 01:59:51;;;;;;;4.70;4.15;;;;;;;5.17;73.41;101996.66;1035788;28;20884;-79
2023/04/20 02:00:23;;;;;;;5.43;3.88;;;;;;;5.31;72.64;101989.19;1039439;28;20315;-79
2023/04/20 02:00:54;;;;;;;5.65;3.75;;;;;;;5.25;73.59;101988.81;1048217;28;20305;-80
2023/04/20 02:01:26;;;;;;;4.28;3.65;;;;;;;5.29;72.42;101984.06;1045263;28;20303;-80
2023/04/20 02:01:58;;;;;;;4.30;3.90;;;;;;;5.34;72.32;101983.59;1044890;28;20291;-79
2023/04/20 02:02:29;;;;;;;7.97;3.45;;;;;;;5.36;72.91;101979.81;1043702;28;20313;-80
2023/04/20 02:03:01;;;;;;;4.82;3.75;;;;;;;5.37;72.89;101985.91;1041357;28;20292;-80
2023/04/20 02:03:33;;;;;;;4.28;3.55;;;;;;;5.43;72.12;101985.28;1039431;28;20307;-80
2023/04/20 02:04:05;;;;;;;4.10;3.72;;;;;;;5.46;72.06;101977.06;1042923;28;20292;-76
2023/04/20 02:04:36;;;;;;;4.30;3.90;;;;;;;5.41;72.13;101979.34;1043280;28;20805;-76
2023/04/20 02:05:09;;;;;;;6.47;3.88;;;;;;;5.45;71.91;101978.03;1039915;28;20308;-76
2023/04/20 02:05:40;;;;;;;7.72;4.30;;;;;;;5.48;71.65;101977.75;1035367;28;20418;-76
2023/04/20 02:06:12;;;;;;;4.63;4.22;;;;;;;5.48;71.86;101978.59;1036226;28;20292;-76
2023/04/20 02:06:43;;;;;;;6.47;4.13;;;;;;;5.54;72.11;101971.84;1039781;28;20300;-76
2023/04/20 02:07:15;;;;;;;7.50;4.55;;;;;;;5.49;71.96;101968.84;1044365;28;20291;-76
2023/04/20 02:07:47;;;;;;;4.00;3.55;;;;;;;5.53;71.56;101978.13;1047841;28;20337;-76
2023/04/20 02:08:19;;;;;;;5.82;3.80;;;;;;;5.59;71.99;101969.56;1043606;28;20424;-76
2023/04/20 02:08:50;;;;;;;4.10;3.70;;;;;;;5.60;71.78;101973.84;1047819;28;20310;-76
2023/04/20 02:09:22;;;;;;;8.40;4.75;;;;;;;5.56;72.93;101969.88;1045984;28;20303;-76
2023/04/20 02:09:54;;;;;;;5.75;3.30;;;;;;;5.58;72.08;101974.03;1045489;28;20291;-77
2023/04/20 02:10:25;;;;;;;7.30;3.90;;;;;;;5.58;72.48;101976.66;1042954;28;20303;-76
2023/04/20 02:10:57;;;;;;;7.85;4.13;;;;;;;5.64;72.21;101972.56;1040109;28;20414;-76
2023/04/20 02:11:29;;;;;;;6.97;3.53;;;;;;;5.65;71.83;101974.22;1043896;28;20307;-76
2023/04/20 02:12:01;;;;;;;3.92;3.25;;;;;;;5.67;71.77;101971.41;1043615;28;20353;-80
2023/04/20 02:12:32;;;;;;;6.05;3.90;;;;;;;5.64;71.30;101975.19;1044186;28;20295;-79
2023/04/20 02:13:04;;;;;;;4.95;3.40;;;;;;;5.58;72.28;101971.38;1043960;28;20308;-79
2023/04/20 02:13:35;;;;;;;8.40;3.60;;;;;;;5.61;72.02;101969.41;1042376;28;20308;-79
2023/04/20 02:14:07;;;;;;;7.00;4.53;;;;;;;5.66;72.01;101965.31;1031506;28;20388;-79
2023/04/20 02:14:38;;;;;;;4.90;3.75;;;;;;;5.69;72.09;101970.28;1033811;28;20821;-79
2023/04/20 02:15:13;;;;;;;4.22;3.83;;;;;;;5.68;72.39;101968.63;1034793;28;20307;-80
2023/04/20 02:15:44;;;;;;;6.43;4.35;;;;;;;5.68;71.78;101963.34;1039855;28;20694;-79
2023/04/20 02:16:17;;;;;;;5.47;3.85;;;;;;;5.61;72.36;101967.59;1037758;28;20312;-79
2023/04/20 02:16:51;;;;;;;3.60;3.08;;;;;;;5.66;72.22;101972.41;1038415;28;20304;-79
2023/04/20 02:17:23;;;;;;;5.10;4.30;;;;;;;5.60;72.66;101968.56;1034912;28;20384;-79
2023/04/20 02:17:56;;;;;;;9.60;3.22;;;;;;;5.66;72.60;101962.66;1039808;28;20806;-79
2023/04/20 02:18:29;;;;;;;5.50;4.45;;;;;;;5.66;72.55;101965.31;1039899;28;20836;-79
2023/04/20 02:19:01;;;;;;;4.55;3.63;;;;;;;5.62;73.58;101963.97;1042950;28;20299;-79
2023/04/20 02:19:33;;;;;;;7.50;3.80;;;;;;;5.67;72.42;101966.13;1038240;28;20880;-76
2023/04/20 02:20:06;;;;;;;5.38;4.13;;;;;;;5.67;72.44;101966.97;1035630;28;20301;-76
2023/04/20 02:20:37;;;;;;;5.18;3.78;;;;;;;5.71;72.42;101968.31;1039810;28;20304;-75
2023/04/20 02:21:09;;;;;;;7.30;4.20;;;;;;;5.69;72.93;101965.00;1037017;28;20339;-76
2023/04/20 02:21:41;;;;;;;5.20;4.70;;;;;;;5.69;72.97;101965.00;1039538;28;20682;-76
2023/04/20 02:22:12;;;;;;;7.65;4.43;;;;;;;5.64;72.95;101962.00;1039671;28;20841;-76
2023/04/20 02:22:44;;;;;;;5.25;3.65;;;;;;;5.62;73.62;101963.13;1038034;28;20418;-77
2023/04/20 02:23:16;;;;;;;7.18;3.50;;;;;;;5.68;73.72;101968.63;1043281;28;20299;-76
2023/04/20 02:23:47;;;;;;;7.38;4.50;;;;;;;5.62;73.55;101961.31;1035360;28;20297;-76
2023/04/20 02:24:19;;;;;;;4.45;3.83;;;;;;;5.65;73.78;101965.47;1035535;28;20296;-76
2023/04/20 02:24:51;;;;;;;7.82;4.40;;;;;;;5.68;73.93;101963.34;1031388;28;20908;-75
2023/04/20 02:25:23;;;;;;;6.03;3.45;;;;;;;5.62;74.11;101961.31;1035930;28;20396;-72
2023/04/20 02:25:55;;;;;;;4.85;3.83;;;;;;;5.62;73.86;101961.31;1039818;28;20311;-76
2023/04/20 02:26:26;;;;;;;6.90;3.88;;;;;;;5.64;73.96;101967.28;1040018;28;20292;-76
2023/04/20 02:26:58;;;;;;;4.38;3.97;;;;;;;5.65;73.77;101957.53;1043521;28;20444;-75
2023/04/20 02:27:30;;;;;;;4.55;4.07;;;;;;;5.67;73.92;101959.03;1043907;28;20295;-78
2023/04/20 02:28:02;;;;;;;3.92;3.53;;;;;;;5.66;73.85;101953.91;1042080;28;20299;-79
2023/04/20 02:28:34;;;;;;;7.13;4.05;;;;;;;5.71;73.33;101957.72;1047119;28;20672;-79
2023/04/20 02:29:07;;;;;;;6.32;3.58;;;;;;;5.74;73.07;101946.84;1045319;28;20550;-79
2023/04/20 02:29:40;;;;;;;7.65;3.90;;;;;;;5.73;72.91;101953.09;1043792;28;20333;-78
2023/04/20 02:30:12;;;;;;;10.77;4.03;;;;;;;5.70;72.73;101953.44;1038499;28;20334;-79
2023/04/20 02:30:46;;;;;;;4.35;3.85;;;;;;;5.78;73.21;101950.84;1038134;28;20801;-79
2023/04/20 02:31:17;;;;;;;4.20;3.75;;;;;;;5.73;73.59;101955.75;1037342;28;20319;-79
2023/04/20 02:31:49;;;;;;;5.72;3.70;;;;;;;5.82;73.89;101943.44;1046097;28;20291;-79